sensor_id;sensor_type;location;lat;lon;timestamp;pressure;altitude;pressure_sealevel;temperature;humidity
35798;BME280;21918;49.940;7.774;2022-08-30T00:02:33;99060.47;;;24.83;37.74
35798;BME280;21918;49.940;7.774;2022-08-30T00:05:03;99060.94;;;24.78;37.72
35798;BME280;21918;49.940;7.774;2022-08-30T00:07:30;99054.88;;;24.76;37.58
35798;BME280;21918;49.940;7.774;2022-08-30T00:09:57;99056.88;;;24.76;37.50
35798;BME280;21918;49.940;7.774;2022-08-30T00:12:24;99056.88;;;24.76;37.73
35798;BME280;21918;49.940;7.774;2022-08-30T00:14:50;99054.91;;;24.73;37.48
35798;BME280;21918;49.940;7.774;2022-08-30T00:17:17;99057.34;;;24.71;37.46
35798;BME280;21918;49.940;7.774;2022-08-30T00:19:44;99066.25;;;24.73;37.74
35798;BME280;21918;49.940;7.774;2022-08-30T00:22:13;99057.75;;;24.73;37.64
35798;BME280;21918;49.940;7.774;2022-08-30T00:24:39;99054.09;;;24.72;37.89
35798;BME280;21918;49.940;7.774;2022-08-30T00:27:06;99065.44;;;24.72;37.81
35798;BME280;21918;49.940;7.774;2022-08-30T00:29:33;99061.41;;;24.70;37.43
35798;BME280;21918;49.940;7.774;2022-08-30T00:31:59;99068.28;;;24.68;37.72
35798;BME280;21918;49.940;7.774;2022-08-30T00:34:27;99071.94;;;24.65;37.75
35798;BME280;21918;49.940;7.774;2022-08-30T00:36:54;99076.81;;;24.61;37.71
35798;BME280;21918;49.940;7.774;2022-08-30T00:39:23;99065.13;;;24.59;37.74
35798;BME280;21918;49.940;7.774;2022-08-30T00:41:49;99069.56;;;24.57;37.80
35798;BME280;21918;49.940;7.774;2022-08-30T00:44:16;99073.63;;;24.56;37.70
35798;BME280;21918;49.940;7.774;2022-08-30T00:46:43;99073.19;;;24.61;37.72
35798;BME280;21918;49.940;7.774;2022-08-30T00:49:11;99072.78;;;24.62;37.49
35798;BME280;21918;49.940;7.774;2022-08-30T00:51:40;99070.38;;;24.57;37.64
35798;BME280;21918;49.940;7.774;2022-08-30T00:54:07;99071.63;;;24.56;37.77
35798;BME280;21918;49.940;7.774;2022-08-30T00:56:37;99072.84;;;24.52;37.76
35798;BME280;21918;49.940;7.774;2022-08-30T00:59:05;99070.47;;;24.47;37.95
35798;BME280;21918;49.940;7.774;2022-08-30T01:01:35;99074.09;;;24.47;37.66
35798;BME280;21918;49.940;7.774;2022-08-30T01:04:04;99075.28;;;24.50;37.76
35798;BME280;21918;49.940;7.774;2022-08-30T01:06:33;99081.78;;;24.47;37.63
35798;BME280;21918;49.940;7.774;2022-08-30T01:09:02;99071.28;;;24.47;37.66
35798;BME280;21918;49.940;7.774;2022-08-30T01:11:31;99077.41;;;24.42;37.55
35798;BME280;21918;49.940;7.774;2022-08-30T01:14:01;99077.41;;;24.39;37.57
35798;BME280;21918;49.940;7.774;2022-08-30T01:16:30;99069.38;;;24.34;37.67
35798;BME280;21918;49.940;7.774;2022-08-30T01:18:58;99066.56;;;24.30;37.73
35798;BME280;21918;49.940;7.774;2022-08-30T01:21:29;99065.75;;;24.30;37.69
35798;BME280;21918;49.940;7.774;2022-08-30T01:24:00;99064.97;;;24.29;37.68
35798;BME280;21918;49.940;7.774;2022-08-30T01:26:29;99061.72;;;24.31;38.00
35798;BME280;21918;49.940;7.774;2022-08-30T01:29:00;99067.38;;;24.31;37.92
35798;BME280;21918;49.940;7.774;2022-08-30T01:31:28;99068.16;;;24.31;37.76
35798;BME280;21918;49.940;7.774;2022-08-30T01:33:54;99072.25;;;24.27;37.73
35798;BME280;21918;49.940;7.774;2022-08-30T01:36:21;99073.91;;;24.21;37.97
35798;BME280;21918;49.940;7.774;2022-08-30T01:38:51;99079.16;;;24.19;38.12
35798;BME280;21918;49.940;7.774;2022-08-30T01:41:23;99077.16;;;24.19;37.96
35798;BME280;21918;49.940;7.774;2022-08-30T01:43:52;99077.94;;;24.20;37.94
35798;BME280;21918;49.940;7.774;2022-08-30T01:46:21;99071.09;;;24.21;38.14
35798;BME280;21918;49.940;7.774;2022-08-30T01:48:49;99074.75;;;24.18;37.92
35798;BME280;21918;49.940;7.774;2022-08-30T01:51:18;99069.91;;;24.18;37.90
35798;BME280;21918;49.940;7.774;2022-08-30T01:53:46;99078.38;;;24.18;37.82
35798;BME280;21918;49.940;7.774;2022-08-30T01:56:23;99076.38;;;24.12;37.96
35798;BME280;21918;49.940;7.774;2022-08-30T01:58:50;99074.75;;;24.14;37.93
35798;BME280;21918;49.940;7.774;2022-08-30T02:01:19;99071.16;;;24.10;37.79
35798;BME280;21918;49.940;7.774;2022-08-30T02:03:47;99069.16;;;24.07;38.11
35798;BME280;21918;49.940;7.774;2022-08-30T02:06:17;99068.31;;;24.14;37.88
35798;BME280;21918;49.940;7.774;2022-08-30T02:08:45;99070.72;;;24.12;37.88
35798;BME280;21918;49.940;7.774;2022-08-30T02:11:13;99069.16;;;24.07;37.92
35798;BME280;21918;49.940;7.774;2022-08-30T02:13:42;99081.28;;;24.04;37.84
35798;BME280;21918;49.940;7.774;2022-08-30T02:16:11;99072.44;;;24.02;38.03
35798;BME280;21918;49.940;7.774;2022-08-30T02:18:40;99072.44;;;24.02;38.09
35798;BME280;21918;49.940;7.774;2022-08-30T02:21:07;99071.59;;;24.02;37.97
35798;BME280;21918;49.940;7.774;2022-08-30T02:23:35;99058.28;;;23.99;38.02
35798;BME280;21918;49.940;7.774;2022-08-30T02:26:02;99061.13;;;23.99;37.97
35798;BME280;21918;49.940;7.774;2022-08-30T02:28:29;99061.53;;;24.01;38.00
35798;BME280;21918;49.940;7.774;2022-08-30T02:30:57;99064.34;;;24.01;37.87
35798;BME280;21918;49.940;7.774;2022-08-30T02:33:24;99065.94;;;24.02;38.17
35798;BME280;21918;49.940;7.774;2022-08-30T02:35:50;99059.91;;;24.00;38.05
35798;BME280;21918;49.940;7.774;2022-08-30T02:38:17;99060.75;;;23.97;37.98
35798;BME280;21918;49.940;7.774;2022-08-30T02:40:44;99051.03;;;23.94;38.04
35798;BME280;21918;49.940;7.774;2022-08-30T02:43:11;99046.63;;;23.90;38.13
35798;BME280;21918;49.940;7.774;2022-08-30T02:45:37;99046.63;;;23.90;38.19
35798;BME280;21918;49.940;7.774;2022-08-30T02:48:05;99043.78;;;23.86;38.26
35798;BME280;21918;49.940;7.774;2022-08-30T02:50:32;99030.06;;;23.85;38.33
35798;BME280;21918;49.940;7.774;2022-08-30T02:52:59;99029.25;;;23.84;38.30
35798;BME280;21918;49.940;7.774;2022-08-30T02:55:28;99032.06;;;23.88;38.37
35798;BME280;21918;49.940;7.774;2022-08-30T02:57:55;99040.16;;;23.86;38.17
35798;BME280;21918;49.940;7.774;2022-08-30T03:00:22;99044.19;;;23.85;37.78
35798;BME280;21918;49.940;7.774;2022-08-30T03:02:49;99049.91;;;23.81;38.38
35798;BME280;21918;49.940;7.774;2022-08-30T03:05:20;99047.47;;;23.80;38.28
35798;BME280;21918;49.940;7.774;2022-08-30T03:07:46;99048.31;;;23.77;38.48
35798;BME280;21918;49.940;7.774;2022-08-30T03:10:14;99049.13;;;23.74;38.32
35798;BME280;21918;49.940;7.774;2022-08-30T03:12:41;99044.28;;;23.71;38.58
35798;BME280;21918;49.940;7.774;2022-08-30T03:15:10;99039.47;;;23.68;38.41
35798;BME280;21918;49.940;7.774;2022-08-30T03:17:38;99039.88;;;23.70;38.25
35798;BME280;21918;49.940;7.774;2022-08-30T03:20:07;99040.63;;;23.74;38.19
35798;BME280;21918;49.940;7.774;2022-08-30T03:22:35;99039.81;;;23.77;38.01
35798;BME280;21918;49.940;7.774;2022-08-30T03:25:03;99030.09;;;23.78;38.38
35798;BME280;21918;49.940;7.774;2022-08-30T03:27:30;99038.59;;;23.74;38.24
35798;BME280;21918;49.940;7.774;2022-08-30T03:29:56;99033.38;;;23.73;38.22
35798;BME280;21918;49.940;7.774;2022-08-30T03:32:23;99031.38;;;23.70;38.35
35798;BME280;21918;49.940;7.774;2022-08-30T03:34:50;99025.31;;;23.68;38.24
35798;BME280;21918;49.940;7.774;2022-08-30T03:37:17;99027.31;;;23.71;38.21
35798;BME280;21918;49.940;7.774;2022-08-30T03:39:45;99024.47;;;23.74;38.08
35798;BME280;21918;49.940;7.774;2022-08-30T03:42:13;99026.50;;;23.70;38.02
35798;BME280;21918;49.940;7.774;2022-08-30T03:44:39;99021.72;;;23.64;38.28
35798;BME280;21918;49.940;7.774;2022-08-30T03:47:06;99022.13;;;23.59;38.41
35798;BME280;21918;49.940;7.774;2022-08-30T03:49:34;99018.50;;;23.58;38.25
35798;BME280;21918;49.940;7.774;2022-08-30T03:52:01;99018.91;;;23.57;38.28
35798;BME280;21918;49.940;7.774;2022-08-30T03:54:28;99020.97;;;23.53;38.35
35798;BME280;21918;49.940;7.774;2022-08-30T03:56:57;99016.13;;;23.50;38.32
35798;BME280;21918;49.940;7.774;2022-08-30T03:59:23;99014.50;;;23.49;38.39
35798;BME280;21918;49.940;7.774;2022-08-30T04:01:50;99022.56;;;23.50;38.47
35798;BME280;21918;49.940;7.774;2022-08-30T04:04:17;99021.38;;;23.51;38.24
35798;BME280;21918;49.940;7.774;2022-08-30T04:06:46;99022.56;;;23.50;38.24
35798;BME280;21918;49.940;7.774;2022-08-30T04:09:13;99022.97;;;23.49;38.50
35798;BME280;21918;49.940;7.774;2022-08-30T04:11:40;99027.44;;;23.50;38.49
35798;BME280;21918;49.940;7.774;2022-08-30T04:14:08;99020.56;;;23.51;38.33
35798;BME280;21918;49.940;7.774;2022-08-30T04:16:35;99024.63;;;23.46;38.30
35798;BME280;21918;49.940;7.774;2022-08-30T04:19:01;99027.84;;;23.45;38.24
35798;BME280;21918;49.940;7.774;2022-08-30T04:21:28;99017.78;;;23.44;38.35
35798;BME280;21918;49.940;7.774;2022-08-30T04:23:55;99026.66;;;23.42;38.38
35798;BME280;21918;49.940;7.774;2022-08-30T04:26:22;99021.81;;;23.43;38.34
35798;BME280;21918;49.940;7.774;2022-08-30T04:28:49;99023.84;;;23.39;38.31
35798;BME280;21918;49.940;7.774;2022-08-30T04:31:17;99022.66;;;23.36;38.47
35798;BME280;21918;49.940;7.774;2022-08-30T04:33:44;99019.03;;;23.36;38.39
35798;BME280;21918;49.940;7.774;2022-08-30T04:36:11;99030.75;;;23.34;38.38
35798;BME280;21918;49.940;7.774;2022-08-30T04:38:39;99026.72;;;23.28;38.58
35798;BME280;21918;49.940;7.774;2022-08-30T04:41:08;99028.75;;;23.28;38.53
35798;BME280;21918;49.940;7.774;2022-08-30T04:43:35;99027.13;;;23.27;38.72
35798;BME280;21918;49.940;7.774;2022-08-30T04:46:04;99035.22;;;23.28;38.83
35798;BME280;21918;49.940;7.774;2022-08-30T04:48:33;99038.44;;;23.23;38.56
35798;BME280;21918;49.940;7.774;2022-08-30T04:51:02;99042.91;;;23.17;38.72
35798;BME280;21918;49.940;7.774;2022-08-30T04:53:29;99047.72;;;23.17;38.99
35798;BME280;21918;49.940;7.774;2022-08-30T04:55:56;99049.75;;;23.20;38.82
35798;BME280;21918;49.940;7.774;2022-08-30T04:58:23;99038.03;;;23.21;38.97
35798;BME280;21918;49.940;7.774;2022-08-30T05:00:49;99043.69;;;23.18;38.84
35798;BME280;21918;49.940;7.774;2022-08-30T05:03:17;99050.97;;;23.15;38.85
35798;BME280;21918;49.940;7.774;2022-08-30T05:05:48;99052.16;;;23.18;39.07
35798;BME280;21918;49.940;7.774;2022-08-30T05:08:17;99058.22;;;23.20;39.04
35798;BME280;21918;49.940;7.774;2022-08-30T05:10:47;99067.47;;;23.20;38.81
35798;BME280;21918;49.940;7.774;2022-08-30T05:13:15;99069.09;;;23.21;38.90
35798;BME280;21918;49.940;7.774;2022-08-30T05:15:43;99062.22;;;23.19;39.09
35798;BME280;21918;49.940;7.774;2022-08-30T05:18:11;99066.69;;;23.16;39.08
35798;BME280;21918;49.940;7.774;2022-08-30T05:20:39;99079.19;;;23.19;38.98
35798;BME280;21918;49.940;7.774;2022-08-30T05:23:08;99071.13;;;23.21;38.96
35798;BME280;21918;49.940;7.774;2022-08-30T05:25:36;99071.16;;;23.24;38.85
35798;BME280;21918;49.940;7.774;2022-08-30T05:28:03;99060.25;;;23.23;38.79
35798;BME280;21918;49.940;7.774;2022-08-30T05:30:32;99059.81;;;23.21;38.97
35798;BME280;21918;49.940;7.774;2022-08-30T05:32:59;99069.91;;;23.22;38.90
35798;BME280;21918;49.940;7.774;2022-08-30T05:35:26;99064.69;;;23.17;39.01
35798;BME280;21918;49.940;7.774;2022-08-30T05:37:53;99059.84;;;23.10;39.27
35798;BME280;21918;49.940;7.774;2022-08-30T05:40:21;99062.66;;;23.10;39.32
35798;BME280;21918;49.940;7.774;2022-08-30T05:42:48;99059.84;;;23.14;39.13
35798;BME280;21918;49.940;7.774;2022-08-30T05:45:15;99062.25;;;23.15;39.08
35798;BME280;21918;49.940;7.774;2022-08-30T05:47:42;99055.00;;;23.14;39.40
35798;BME280;21918;49.940;7.774;2022-08-30T05:50:08;99060.63;;;23.18;39.32
35798;BME280;21918;49.940;7.774;2022-08-30T05:52:36;99061.41;;;23.22;39.36
35798;BME280;21918;49.940;7.774;2022-08-30T05:55:03;99056.63;;;23.22;39.49
35798;BME280;21918;49.940;7.774;2022-08-30T05:57:34;99052.16;;;23.21;39.61
35798;BME280;21918;49.940;7.774;2022-08-30T06:00:05;99056.63;;;23.22;39.63
35798;BME280;21918;49.940;7.774;2022-08-30T06:02:35;99050.16;;;23.25;39.63
35798;BME280;21918;49.940;7.774;2022-08-30T06:05:05;99056.63;;;23.26;39.68
35798;BME280;21918;49.940;7.774;2022-08-30T06:07:32;99049.75;;;23.23;39.84
35798;BME280;21918;49.940;7.774;2022-08-30T06:09:59;99052.97;;;23.25;39.98
35798;BME280;21918;49.940;7.774;2022-08-30T06:12:26;99055.38;;;23.30;39.90
35798;BME280;21918;49.940;7.774;2022-08-30T06:14:54;99059.78;;;23.35;39.86
35798;BME280;21918;49.940;7.774;2022-08-30T06:17:21;99057.75;;;23.39;39.87
35798;BME280;21918;49.940;7.774;2022-08-30T06:19:48;99058.16;;;23.41;40.02
35798;BME280;21918;49.940;7.774;2022-08-30T06:22:14;99061.81;;;23.41;39.86
35798;BME280;21918;49.940;7.774;2022-08-30T06:24:41;99057.34;;;23.44;40.28
35798;BME280;21918;49.940;7.774;2022-08-30T06:27:09;99056.13;;;23.45;40.21
35798;BME280;21918;49.940;7.774;2022-08-30T06:29:35;99056.91;;;23.52;40.25
35798;BME280;21918;49.940;7.774;2022-08-30T06:32:04;99063.38;;;23.53;40.26
35798;BME280;21918;49.940;7.774;2022-08-30T06:34:30;99059.31;;;23.54;40.35
35798;BME280;21918;49.940;7.774;2022-08-30T06:36:57;99058.50;;;23.57;40.41
35798;BME280;21918;49.940;7.774;2022-08-30T06:39:24;99061.34;;;23.57;40.37
35798;BME280;21918;49.940;7.774;2022-08-30T06:41:51;99058.06;;;23.62;40.43
35798;BME280;21918;49.940;7.774;2022-08-30T06:44:17;99060.88;;;23.65;40.46
35798;BME280;21918;49.940;7.774;2022-08-30T06:46:44;99060.47;;;23.67;40.49
35798;BME280;21918;49.940;7.774;2022-08-30T06:49:12;99065.31;;;23.70;40.42
35798;BME280;21918;49.940;7.774;2022-08-30T06:51:39;99071.34;;;23.72;40.33
35798;BME280;21918;49.940;7.774;2022-08-30T06:54:07;99060.03;;;23.75;40.32
35798;BME280;21918;49.940;7.774;2022-08-30T06:56:35;99064.44;;;23.80;40.62
35798;BME280;21918;49.940;7.774;2022-08-30T06:59:02;99065.63;;;23.82;40.73
35798;BME280;21918;49.940;7.774;2022-08-30T07:01:29;99068.44;;;23.86;40.80
35798;BME280;21918;49.940;7.774;2022-08-30T07:03:57;99068.44;;;23.89;40.65
35798;BME280;21918;49.940;7.774;2022-08-30T07:06:28;99062.78;;;23.89;40.86
35798;BME280;21918;49.940;7.774;2022-08-30T07:08:55;99065.97;;;23.91;40.95
35798;BME280;21918;49.940;7.774;2022-08-30T07:11:27;99061.53;;;23.90;41.31
35798;BME280;21918;49.940;7.774;2022-08-30T07:13:54;99067.25;;;23.87;41.63
35798;BME280;21918;49.940;7.774;2022-08-30T07:16:22;99078.94;;;23.89;41.87
35798;BME280;21918;49.940;7.774;2022-08-30T07:18:49;99072.84;;;23.90;41.63
35798;BME280;21918;49.940;7.774;2022-08-30T07:21:18;99074.88;;;23.93;41.46
35798;BME280;21918;49.940;7.774;2022-08-30T07:23:47;99075.66;;;23.97;41.65
35798;BME280;21918;49.940;7.774;2022-08-30T07:26:16;99084.94;;;24.05;41.33
35798;BME280;21918;49.940;7.774;2022-08-30T07:28:44;99074.78;;;24.11;41.13
35798;BME280;21918;49.940;7.774;2022-08-30T07:31:13;99083.66;;;24.16;41.11
35798;BME280;21918;49.940;7.774;2022-08-30T07:33:41;99084.84;;;24.19;41.11
35798;BME280;21918;49.940;7.774;2022-08-30T07:36:08;99084.41;;;24.24;41.00
35798;BME280;21918;49.940;7.774;2022-08-30T07:38:36;99077.94;;;24.27;41.08
35798;BME280;21918;49.940;7.774;2022-08-30T07:41:04;99079.91;;;24.30;40.88
35798;BME280;21918;49.940;7.774;2022-08-30T07:43:33;99084.34;;;24.31;41.15
35798;BME280;21918;49.940;7.774;2022-08-30T07:46:01;99086.72;;;24.36;41.09
35798;BME280;21918;49.940;7.774;2022-08-30T07:48:28;99083.47;;;24.41;40.86
35798;BME280;21918;49.940;7.774;2022-08-30T07:50:55;99081.78;;;24.47;40.74
35798;BME280;21918;49.940;7.774;2022-08-30T07:53:22;99079.75;;;24.51;40.63
35798;BME280;21918;49.940;7.774;2022-08-30T07:55:50;99080.94;;;24.53;40.50
35798;BME280;21918;49.940;7.774;2022-08-30T07:58:18;99082.53;;;24.54;40.47
35798;BME280;21918;49.940;7.774;2022-08-30T08:00:45;99073.22;;;24.57;39.98
35798;BME280;21918;49.940;7.774;2022-08-30T08:03:12;99082.09;;;24.63;40.28
35798;BME280;21918;49.940;7.774;2022-08-30T08:05:40;99083.28;;;24.65;40.09
35798;BME280;21918;49.940;7.774;2022-08-30T08:08:08;99082.44;;;24.72;39.82
35798;BME280;21918;49.940;7.774;2022-08-30T08:10:37;99080.41;;;24.73;39.82
35798;BME280;21918;49.940;7.774;2022-08-30T08:13:04;99079.13;;;24.77;39.84
35798;BME280;21918;49.940;7.774;2022-08-30T08:15:32;99080.28;;;24.87;39.36
35798;BME280;21918;49.940;7.774;2022-08-30T08:17:59;99079.03;;;24.91;39.48
35798;BME280;21918;49.940;7.774;2022-08-30T08:20:26;99085.44;;;24.95;39.33
35798;BME280;21918;49.940;7.774;2022-08-30T08:22:53;99078.94;;;24.98;39.35
35798;BME280;21918;49.940;7.774;2022-08-30T08:25:20;99084.56;;;25.02;39.24
35798;BME280;21918;49.940;7.774;2022-08-30T08:27:48;99072.38;;;25.08;38.90
35798;BME280;21918;49.940;7.774;2022-08-30T08:30:16;99075.13;;;25.15;39.13
35798;BME280;21918;49.940;7.774;2022-08-30T08:32:44;99075.50;;;25.17;39.08
35798;BME280;21918;49.940;7.774;2022-08-30T08:35:11;99080.31;;;25.20;38.94
35798;BME280;21918;49.940;7.774;2022-08-30T08:37:39;99084.31;;;25.26;39.08
35798;BME280;21918;49.940;7.774;2022-08-30T08:40:08;99075.81;;;25.26;38.87
35798;BME280;21918;49.940;7.774;2022-08-30T08:42:44;99077.78;;;25.33;38.38
35798;BME280;21918;49.940;7.774;2022-08-30T08:45:17;99077.75;;;25.36;38.24
35798;BME280;21918;49.940;7.774;2022-08-30T08:47:53;99073.31;;;25.35;38.34
35798;BME280;21918;49.940;7.774;2022-08-30T08:50:22;99069.97;;;25.44;38.13
35798;BME280;21918;49.940;7.774;2022-08-30T08:52:52;99063.78;;;25.52;37.77
35798;BME280;21918;49.940;7.774;2022-08-30T08:55:39;99070.22;;;25.56;38.01
35798;BME280;21918;49.940;7.774;2022-08-30T08:58:14;99068.59;;;25.55;38.32
35798;BME280;21918;49.940;7.774;2022-08-30T09:00:44;99067.72;;;25.58;38.52
35798;BME280;21918;49.940;7.774;2022-08-30T09:03:13;99061.63;;;25.60;38.24
35798;BME280;21918;49.940;7.774;2022-08-30T09:05:43;99052.59;;;25.68;38.28
35798;BME280;21918;49.940;7.774;2022-08-30T09:08:12;99052.97;;;25.74;37.82
35798;BME280;21918;49.940;7.774;2022-08-30T09:10:40;99058.13;;;25.82;37.72
35798;BME280;21918;49.940;7.774;2022-08-30T09:13:12;99053.44;;;25.95;37.47
35798;BME280;21918;49.940;7.774;2022-08-30T09:15:38;99058.16;;;26.09;37.80
35798;BME280;21918;49.940;7.774;2022-08-30T09:18:06;99050.97;;;26.27;37.54
35798;BME280;21918;49.940;7.774;2022-08-30T09:20:39;99053.09;;;26.46;37.00
35798;BME280;21918;49.940;7.774;2022-08-30T09:23:23;99053.34;;;26.55;37.07
35798;BME280;21918;49.940;7.774;2022-08-30T09:25:58;99043.75;;;26.72;37.29
35798;BME280;21918;49.940;7.774;2022-08-30T09:28:28;99047.94;;;26.87;36.23
35798;BME280;21918;49.940;7.774;2022-08-30T09:31:01;99038.00;;;26.99;36.02
35798;BME280;21918;49.940;7.774;2022-08-30T09:33:29;99048.66;;;27.15;35.24
35798;BME280;21918;49.940;7.774;2022-08-30T09:36:09;99035.78;;;27.30;34.89
35798;BME280;21918;49.940;7.774;2022-08-30T09:38:38;99043.53;;;27.49;35.06
35798;BME280;21918;49.940;7.774;2022-08-30T09:41:27;99042.66;;;27.52;35.36
35798;BME280;21918;49.940;7.774;2022-08-30T09:44:07;99043.22;;;27.63;35.46
35798;BME280;21918;49.940;7.774;2022-08-30T09:46:41;99042.56;;;27.75;35.28
35798;BME280;21918;49.940;7.774;2022-08-30T09:49:26;99044.88;;;27.80;35.33
35798;BME280;21918;49.940;7.774;2022-08-30T09:52:06;99042.44;;;27.98;34.93
35798;BME280;21918;49.940;7.774;2022-08-30T09:54:39;99038.69;;;28.36;33.95
35798;BME280;21918;49.940;7.774;2022-08-30T09:57:14;99043.28;;;28.66;32.94
35798;BME280;21918;49.940;7.774;2022-08-30T09:59:49;99038.63;;;28.72;32.61
35798;BME280;21918;49.940;7.774;2022-08-30T10:02:31;99033.91;;;28.81;32.58
35798;BME280;21918;49.940;7.774;2022-08-30T10:05:09;99027.69;;;28.99;32.73
35798;BME280;21918;49.940;7.774;2022-08-30T10:07:46;99025.94;;;29.05;32.82
35798;BME280;21918;49.940;7.774;2022-08-30T10:10:20;99031.19;;;29.06;32.41
35798;BME280;21918;49.940;7.774;2022-08-30T10:13:01;99026.66;;;28.93;32.33
35798;BME280;21918;49.940;7.774;2022-08-30T10:15:33;99028.25;;;28.94;31.87
35798;BME280;21918;49.940;7.774;2022-08-30T10:18:09;99023.66;;;28.84;31.72
35798;BME280;21918;49.940;7.774;2022-08-30T10:20:44;99008.00;;;28.76;31.93
35798;BME280;21918;49.940;7.774;2022-08-30T10:23:18;99019.09;;;28.86;32.17
35798;BME280;21918;49.940;7.774;2022-08-30T10:25:49;99020.69;;;29.03;32.14
35798;BME280;21918;49.940;7.774;2022-08-30T10:28:23;99013.72;;;29.04;31.62
35798;BME280;21918;49.940;7.774;2022-08-30T10:30:55;99012.38;;;29.09;32.38
35798;BME280;21918;49.940;7.774;2022-08-30T10:33:25;99012.47;;;29.22;32.01
35798;BME280;21918;49.940;7.774;2022-08-30T10:35:56;99007.69;;;29.31;32.32
35798;BME280;21918;49.940;7.774;2022-08-30T10:38:28;99009.22;;;29.48;32.28
35798;BME280;21918;49.940;7.774;2022-08-30T10:40:59;99006.19;;;29.68;31.97
35798;BME280;21918;49.940;7.774;2022-08-30T10:43:48;99005.22;;;29.74;32.11
35798;BME280;21918;49.940;7.774;2022-08-30T10:46:23;99003.13;;;29.87;31.79
35798;BME280;21918;49.940;7.774;2022-08-30T10:48:52;99000.78;;;29.86;31.46
35798;BME280;21918;49.940;7.774;2022-08-30T10:51:24;99001.69;;;29.83;31.49
35798;BME280;21918;49.940;7.774;2022-08-30T10:53:56;99011.47;;;29.82;31.10
35798;BME280;21918;49.940;7.774;2022-08-30T10:56:28;99009.88;;;29.81;30.94
35798;BME280;21918;49.940;7.774;2022-08-30T10:58:55;99010.19;;;29.70;30.71
35798;BME280;21918;49.940;7.774;2022-08-30T11:01:47;99005.53;;;29.76;30.01
35798;BME280;21918;49.940;7.774;2022-08-30T11:04:49;99006.00;;;29.87;30.85
35798;BME280;21918;49.940;7.774;2022-08-30T11:07:30;98999.63;;;29.96;29.98
35798;BME280;21918;49.940;7.774;2022-08-30T11:10:24;98998.81;;;29.95;30.68
35798;BME280;21918;49.940;7.774;2022-08-30T11:12:59;98994.94;;;30.14;30.42
35798;BME280;21918;49.940;7.774;2022-08-30T11:15:33;98992.88;;;30.27;29.95
35798;BME280;21918;49.940;7.774;2022-08-30T11:18:03;98983.38;;;30.43;30.51
35798;BME280;21918;49.940;7.774;2022-08-30T11:20:35;98982.22;;;30.53;29.88
35798;BME280;21918;49.940;7.774;2022-08-30T11:23:29;98981.09;;;30.50;29.52
35798;BME280;21918;49.940;7.774;2022-08-30T11:26:00;98976.81;;;30.67;29.14
35798;BME280;21918;49.940;7.774;2022-08-30T11:29:03;98970.06;;;30.61;30.01
35798;BME280;21918;49.940;7.774;2022-08-30T11:31:40;98974.56;;;30.62;29.01
35798;BME280;21918;49.940;7.774;2022-08-30T11:34:07;98976.41;;;30.56;29.18
35798;BME280;21918;49.940;7.774;2022-08-30T11:36:59;98972.25;;;30.57;29.29
35798;BME280;21918;49.940;7.774;2022-08-30T11:39:53;98973.63;;;30.65;29.45
35798;BME280;21918;49.940;7.774;2022-08-30T11:42:30;98970.63;;;30.81;28.42
35798;BME280;21918;49.940;7.774;2022-08-30T11:48:02;98962.84;;;30.82;29.15
35798;BME280;21918;49.940;7.774;2022-08-30T11:50:34;98969.53;;;31.00;29.13
35798;BME280;21918;49.940;7.774;2022-08-30T11:53:10;98966.91;;;31.27;28.04
35798;BME280;21918;49.940;7.774;2022-08-30T11:55:52;98955.44;;;31.49;27.01
35798;BME280;21918;49.940;7.774;2022-08-30T11:58:34;98962.38;;;31.61;27.69
35798;BME280;21918;49.940;7.774;2022-08-30T12:01:15;98951.22;;;31.63;27.59
35798;BME280;21918;49.940;7.774;2022-08-30T12:03:52;98954.63;;;31.48;28.11
35798;BME280;21918;49.940;7.774;2022-08-30T12:06:45;98957.00;;;31.41;28.07
35798;BME280;21918;49.940;7.774;2022-08-30T12:12:51;98960.97;;;31.22;27.87
35798;BME280;21918;49.940;7.774;2022-08-30T12:18:10;98955.25;;;31.22;27.31
35798;BME280;21918;49.940;7.774;2022-08-30T12:21:07;98947.69;;;31.15;27.09
35798;BME280;21918;49.940;7.774;2022-08-30T12:23:39;98955.94;;;31.26;27.06
35798;BME280;21918;49.940;7.774;2022-08-30T12:26:14;98951.91;;;31.23;27.05
35798;BME280;21918;49.940;7.774;2022-08-30T12:28:42;98946.25;;;31.11;27.33
35798;BME280;21918;49.940;7.774;2022-08-30T12:31:14;98945.38;;;31.01;26.81
35798;BME280;21918;49.940;7.774;2022-08-30T12:33:44;98939.66;;;31.01;26.95
35798;BME280;21918;49.940;7.774;2022-08-30T12:36:13;98944.44;;;31.04;27.15
35798;BME280;21918;49.940;7.774;2022-08-30T12:38:42;98939.19;;;31.03;27.60
35798;BME280;21918;49.940;7.774;2022-08-30T12:41:17;98939.44;;;30.96;27.60
35798;BME280;21918;49.940;7.774;2022-08-30T12:43:51;98947.00;;;31.02;28.19
35798;BME280;21918;49.940;7.774;2022-08-30T12:46:20;98937.78;;;31.07;27.80
35798;BME280;21918;49.940;7.774;2022-08-30T12:48:48;98946.06;;;31.05;27.42
35798;BME280;21918;49.940;7.774;2022-08-30T12:51:33;98928.63;;;30.91;27.94
35798;BME280;21918;49.940;7.774;2022-08-30T12:54:07;98921.97;;;30.94;26.96
35798;BME280;21918;49.940;7.774;2022-08-30T12:56:49;98935.13;;;30.91;27.27
35798;BME280;21918;49.940;7.774;2022-08-30T12:59:48;98935.72;;;30.86;27.29
35798;BME280;21918;49.940;7.774;2022-08-30T13:02:20;98931.28;;;30.85;27.29
35798;BME280;21918;49.940;7.774;2022-08-30T13:04:48;98928.28;;;30.89;28.13
35798;BME280;21918;49.940;7.774;2022-08-30T13:07:31;98921.22;;;30.81;27.31
35798;BME280;21918;49.940;7.774;2022-08-30T13:10:12;98914.13;;;30.85;27.39
35798;BME280;21918;49.940;7.774;2022-08-30T13:12:39;98908.03;;;30.83;26.63
35798;BME280;21918;49.940;7.774;2022-08-30T13:15:19;98911.03;;;30.80;27.26
35798;BME280;21918;49.940;7.774;2022-08-30T13:21:27;98920.09;;;30.78;27.37
35798;BME280;21918;49.940;7.774;2022-08-30T13:23:57;98917.91;;;30.82;27.02
35798;BME280;21918;49.940;7.774;2022-08-30T13:26:24;98909.44;;;30.79;27.18
35798;BME280;21918;49.940;7.774;2022-08-30T13:28:52;98913.09;;;30.79;27.36
35798;BME280;21918;49.940;7.774;2022-08-30T13:31:19;98908.66;;;30.78;27.51